Time;durP1;ratioP1;P1;durP2;ratioP2;P2;SDS_P1;SDS_P2;PMS_P1;PMS_P2;Temp;Humidity;BMP_temperature;BMP_pressure;BME280_temperature;BME280_humidity;BME280_pressure;Samples;Min_cycle;Max_cycle;Signal;HPM_P1;HPM_P2
2021/12/18 00:01:53;;;;;;;9.63;3.90;;;;;;;;;;5067000;28;20461;-71
2021/12/18 00:04:20;;;;;;;8.10;4.20;;;;;;;;;;5069508;28;20211;-70
2021/12/18 00:06:47;;;;;;;8.67;4.13;;;;;;;;;;5068995;28;20672;-70
2021/12/18 00:09:13;;;;;;;11.13;5.33;;;;;;;;;;5068507;28;20232;-70
2021/12/18 00:11:40;;;;;;;10.30;5.07;;;;;;;;;;5069647;28;20230;-70
2021/12/18 00:14:07;;;;;;;13.30;5.40;;;;;;;;;;5069283;28;20660;-70
2021/12/18 00:16:34;;;;;;;11.87;5.10;;;;;;;;;;5067685;28;20706;-70
2021/12/18 00:19:01;;;;;;;11.87;4.90;;;;;;;;;;5070086;28;20213;-70
2021/12/18 00:21:27;;;;;;;12.87;5.27;;;;;;;;;;5070530;28;20270;-70
2021/12/18 00:23:54;;;;;;;11.47;5.07;;;;;;;;;;5068237;28;20250;-70
2021/12/18 00:26:21;;;;;;;12.50;5.20;;;;;;;;;;5068001;28;20232;-70
2021/12/18 00:28:48;;;;;;;15.80;5.70;;;;;;;;;;5069597;28;20254;-70
2021/12/18 00:31:14;;;;;;;14.70;5.83;;;;;;;;;;5069771;28;20234;-70
2021/12/18 00:33:42;;;;;;;16.47;6.10;;;;;;;;;;5068810;28;20899;-70
2021/12/18 00:36:09;;;;;;;19.90;7.77;;;;;;;;;;5068282;28;20281;-71
2021/12/18 00:38:35;;;;;;;20.03;6.37;;;;;;;;;;5068826;28;21234;-71
2021/12/18 00:41:15;;;;;;;28.37;7.73;;;;;;;;;;5066560;28;20236;-71
2021/12/18 00:44:01;;;;;;;21.83;7.37;;;;;;;;;;5068178;28;20205;-71
2021/12/18 00:46:29;;;;;;;20.47;6.53;;;;;;;;;;5067482;28;20228;-71
2021/12/18 00:48:57;;;;;;;16.73;6.33;;;;;;;;;;5067730;28;20236;-71
2021/12/18 00:51:23;;;;;;;28.93;7.53;;;;;;;;;;5066900;28;20217;-71
2021/12/18 00:53:49;;;;;;;26.33;6.63;;;;;;;;;;5068877;28;20220;-71
2021/12/18 00:56:16;;;;;;;25.33;7.53;;;;;;;;;;5068374;28;20225;-70
2021/12/18 00:58:43;;;;;;;36.47;7.53;;;;;;;;;;5068656;28;20225;-71
2021/12/18 01:01:10;;;;;;;23.10;6.10;;;;;;;;;;5068774;28;20789;-71
2021/12/18 01:03:38;;;;;;;26.73;6.90;;;;;;;;;;5069403;28;20211;-70
2021/12/18 01:06:07;;;;;;;24.93;6.40;;;;;;;;;;5069414;28;20212;-70
2021/12/18 01:08:33;;;;;;;34.10;7.10;;;;;;;;;;5071775;28;20219;-70
2021/12/18 01:11:21;;;;;;;38.73;7.97;;;;;;;;;;5071276;28;20254;-71
2021/12/18 01:14:01;;;;;;;38.37;8.30;;;;;;;;;;5072339;28;20216;-70
2021/12/18 01:16:38;;;;;;;27.77;7.20;;;;;;;;;;5072148;28;20793;-70
2021/12/18 01:24:42;;;;;;;24.83;6.00;;;;;;;;;;5069730;28;20246;-70
2021/12/18 01:27:08;;;;;;;24.47;7.00;;;;;;;;;;5073029;28;20261;-70
2021/12/18 01:29:35;;;;;;;21.73;6.53;;;;;;;;;;5072884;28;20271;-71
2021/12/18 01:32:01;;;;;;;29.20;7.47;;;;;;;;;;5070858;28;21414;-71
2021/12/18 01:34:28;;;;;;;18.70;6.27;;;;;;;;;;5072953;28;20242;-71
2021/12/18 01:36:55;;;;;;;36.87;7.43;;;;;;;;;;5072430;28;20267;-71
2021/12/18 01:39:22;;;;;;;31.00;6.90;;;;;;;;;;5071511;28;20205;-71
2021/12/18 01:42:05;;;;;;;24.00;6.60;;;;;;;;;;5072907;28;21354;-71
2021/12/18 01:44:52;;;;;;;27.23;6.47;;;;;;;;;;5072808;28;20287;-71
2021/12/18 01:52:54;;;;;;;27.63;6.33;;;;;;;;;;5070837;28;20341;-71
2021/12/18 01:55:20;;;;;;;20.33;5.53;;;;;;;;;;5072047;28;20663;-70
2021/12/18 01:57:47;;;;;;;21.57;5.47;;;;;;;;;;5071015;28;20208;-70
2021/12/18 02:00:18;;;;;;;18.70;5.10;;;;;;;;;;5070563;28;20309;-70
2021/12/18 02:02:45;;;;;;;19.37;5.27;;;;;;;;;;5071182;28;20366;-70
2021/12/18 02:05:11;;;;;;;15.43;4.13;;;;;;;;;;5071916;28;20211;-71
2021/12/18 02:07:39;;;;;;;14.37;4.53;;;;;;;;;;5070929;28;20626;-71
2021/12/18 02:10:15;;;;;;;16.07;4.30;;;;;;;;;;5070542;28;20286;-71
2021/12/18 02:12:48;;;;;;;16.90;4.23;;;;;;;;;;5071266;28;20206;-70
2021/12/18 02:20:45;;;;;;;18.47;3.80;;;;;;;;;;5072328;28;20202;-70
2021/12/18 02:23:12;;;;;;;14.13;3.47;;;;;;;;;;5071932;28;20759;-70
2021/12/18 02:25:39;;;;;;;17.20;3.77;;;;;;;;;;5067740;28;20676;-70
2021/12/18 02:28:11;;;;;;;20.63;4.33;;;;;;;;;;5069280;28;20688;-70
2021/12/18 02:30:37;;;;;;;5.97;1.97;;;;;;;;;;5070984;28;21115;-70
2021/12/18 02:33:04;;;;;;;14.73;3.00;;;;;;;;;;5071453;28;20521;-70
2021/12/18 02:35:32;;;;;;;11.97;2.90;;;;;;;;;;5069613;28;20207;-70
2021/12/18 02:38:12;;;;;;;11.50;3.07;;;;;;;;;;5070000;28;20231;-70
2021/12/18 02:41:03;;;;;;;7.43;2.07;;;;;;;;;;5069446;28;20223;-70
2021/12/18 02:43:32;;;;;;;6.63;2.33;;;;;;;;;;5069199;28;20216;-70
2021/12/18 02:46:00;;;;;;;6.40;2.20;;;;;;;;;;5070583;28;20234;-70
2021/12/18 02:48:28;;;;;;;7.20;2.20;;;;;;;;;;5070923;28;20274;-70
2021/12/18 02:50:55;;;;;;;9.00;2.10;;;;;;;;;;5069488;28;20391;-70
2021/12/18 02:53:24;;;;;;;7.00;2.33;;;;;;;;;;5068507;28;20204;-70
2021/12/18 02:55:55;;;;;;;9.13;2.70;;;;;;;;;;5068881;28;20224;-70
2021/12/18 02:58:21;;;;;;;9.60;2.10;;;;;;;;;;5070352;28;20319;-70
2021/12/18 03:00:48;;;;;;;12.60;2.47;;;;;;;;;;5070983;28;20217;-70
2021/12/18 03:03:15;;;;;;;14.47;3.13;;;;;;;;;;5070412;28;20617;-70
2021/12/18 03:05:49;;;;;;;17.50;3.03;;;;;;;;;;5069804;28;20218;-70
2021/12/18 03:08:23;;;;;;;13.77;3.27;;;;;;;;;;5069257;28;20379;-70
2021/12/18 03:24:43;;;;;;;5.67;1.43;;;;;;;;;;5068643;28;20241;-70
2021/12/18 03:27:11;;;;;;;6.03;1.67;;;;;;;;;;5069524;28;20246;-70
2021/12/18 03:29:37;;;;;;;5.43;1.97;;;;;;;;;;5068292;28;20382;-70
2021/12/18 03:32:04;;;;;;;11.03;2.30;;;;;;;;;;5067308;28;20239;-70
2021/12/18 03:34:30;;;;;;;18.50;2.50;;;;;;;;;;5067976;28;20268;-70
2021/12/18 03:36:57;;;;;;;12.10;2.20;;;;;;;;;;5068692;28;20208;-70
2021/12/18 03:39:23;;;;;;;13.60;2.37;;;;;;;;;;5070031;28;20209;-70
2021/12/18 03:41:49;;;;;;;26.70;3.07;;;;;;;;;;5069356;28;20218;-70
2021/12/18 03:44:17;;;;;;;27.13;2.40;;;;;;;;;;5068720;28;20210;-70
2021/12/18 03:46:43;;;;;;;14.80;2.27;;;;;;;;;;5067570;28;20237;-70
2021/12/18 03:49:10;;;;;;;12.50;2.07;;;;;;;;;;5069687;28;20225;-70
2021/12/18 03:51:36;;;;;;;31.73;2.87;;;;;;;;;;5069567;28;20306;-70
2021/12/18 03:54:03;;;;;;;29.93;3.33;;;;;;;;;;5069219;28;20296;-71
2021/12/18 03:56:29;;;;;;;43.33;3.60;;;;;;;;;;5069357;28;20234;-70
2021/12/18 03:58:56;;;;;;;37.33;4.00;;;;;;;;;;5070726;28;20264;-70
2021/12/18 04:01:24;;;;;;;28.50;3.67;;;;;;;;;;5067557;28;20634;-70
2021/12/18 04:03:50;;;;;;;25.10;3.67;;;;;;;;;;5069844;28;20959;-70
2021/12/18 04:06:17;;;;;;;34.43;3.67;;;;;;;;;;5068870;28;20272;-70
2021/12/18 04:08:43;;;;;;;49.97;4.20;;;;;;;;;;5069456;28;20221;-70
2021/12/18 04:11:10;;;;;;;37.90;5.10;;;;;;;;;;5068875;28;20288;-70
2021/12/18 04:13:37;;;;;;;12.37;2.60;;;;;;;;;;5066926;28;20211;-70
2021/12/18 04:16:03;;;;;;;15.97;3.70;;;;;;;;;;5069760;28;20665;-70
2021/12/18 04:18:31;;;;;;;16.63;3.93;;;;;;;;;;5068566;28;20214;-70
2021/12/18 04:20:57;;;;;;;8.43;2.77;;;;;;;;;;5068185;28;20278;-71
2021/12/18 04:23:24;;;;;;;6.73;2.10;;;;;;;;;;5068821;28;20256;-70
2021/12/18 04:25:50;;;;;;;10.03;2.57;;;;;;;;;;5066893;28;20303;-70
2021/12/18 04:28:17;;;;;;;10.23;2.87;;;;;;;;;;5066057;28;20213;-70
2021/12/18 04:30:43;;;;;;;8.10;2.47;;;;;;;;;;5067202;28;20732;-70
2021/12/18 04:33:09;;;;;;;7.77;1.93;;;;;;;;;;5069793;28;20888;-70
2021/12/18 04:35:37;;;;;;;4.63;1.60;;;;;;;;;;5068408;28;21242;-70
2021/12/18 04:38:04;;;;;;;6.97;2.13;;;;;;;;;;5067771;28;20720;-70
2021/12/18 04:40:30;;;;;;;3.23;1.43;;;;;;;;;;5068725;28;20226;-70
2021/12/18 04:42:57;;;;;;;4.27;1.60;;;;;;;;;;5072534;28;20382;-70
2021/12/18 04:45:25;;;;;;;4.37;1.53;;;;;;;;;;5072172;28;20255;-70
2021/12/18 04:47:51;;;;;;;5.00;1.67;;;;;;;;;;5072829;28;20215;-70
2021/12/18 04:50:18;;;;;;;8.77;1.90;;;;;;;;;;5073517;28;20282;-70
2021/12/18 04:52:46;;;;;;;10.70;2.23;;;;;;;;;;5070664;28;21113;-70
2021/12/18 04:55:12;;;;;;;10.07;2.57;;;;;;;;;;5073520;28;20228;-72
2021/12/18 04:57:39;;;;;;;10.27;2.90;;;;;;;;;;5072670;28;20262;-72
2021/12/18 05:00:09;;;;;;;8.30;2.50;;;;;;;;;;5073191;28;20267;-70
2021/12/18 05:02:39;;;;;;;6.37;1.97;;;;;;;;;;5072634;28;20250;-72
2021/12/18 05:05:06;;;;;;;13.57;2.23;;;;;;;;;;5073047;28;20210;-70
2021/12/18 05:07:33;;;;;;;26.27;2.80;;;;;;;;;;5074299;28;20679;-70
2021/12/18 05:10:02;;;;;;;17.00;2.93;;;;;;;;;;5070079;28;20286;-70
2021/12/18 05:12:28;;;;;;;10.90;2.30;;;;;;;;;;5072816;28;20218;-72
2021/12/18 05:14:54;;;;;;;15.87;2.80;;;;;;;;;;5071610;28;20220;-72
2021/12/18 05:17:21;;;;;;;21.40;2.53;;;;;;;;;;5073176;28;20849;-70
2021/12/18 05:19:47;;;;;;;9.97;1.73;;;;;;;;;;5072187;28;20278;-70
2021/12/18 05:22:14;;;;;;;8.00;1.87;;;;;;;;;;5072415;28;20767;-70
2021/12/18 05:24:40;;;;;;;4.80;1.87;;;;;;;;;;5072509;28;20294;-70
2021/12/18 05:27:08;;;;;;;9.93;1.67;;;;;;;;;;5071332;28;20210;-70
2021/12/18 05:29:35;;;;;;;10.80;2.20;;;;;;;;;;5071608;28;20322;-72
2021/12/18 05:32:01;;;;;;;10.60;2.10;;;;;;;;;;5074729;28;20460;-78
2021/12/18 05:34:33;;;;;;;20.30;2.33;;;;;;;;;;5078114;28;20209;-79
2021/12/18 05:37:16;;;;;;;12.03;2.30;;;;;;;;;;5073910;28;20693;-77
2021/12/18 05:39:45;;;;;;;34.70;2.93;;;;;;;;;;5072272;28;20224;-77
2021/12/18 05:42:14;;;;;;;36.90;3.67;;;;;;;;;;5072754;28;20209;-77
2021/12/18 05:44:40;;;;;;;32.97;2.60;;;;;;;;;;5071743;28;20607;-77
2021/12/18 05:47:07;;;;;;;40.73;6.50;;;;;;;;;;5075524;28;20221;-78
2021/12/18 05:49:34;;;;;;;86.97;5.87;;;;;;;;;;5072570;28;20295;-77
2021/12/18 05:52:00;;;;;;;61.93;4.90;;;;;;;;;;5071783;28;20227;-76
2021/12/18 05:54:27;;;;;;;16.77;2.17;;;;;;;;;;5071661;28;20224;-76
2021/12/18 05:56:53;;;;;;;57.20;3.03;;;;;;;;;;5071089;28;20213;-77
2021/12/18 05:59:21;;;;;;;46.17;3.60;;;;;;;;;;5077353;28;20273;-78
2021/12/18 06:01:48;;;;;;;18.93;2.17;;;;;;;;;;5076330;28;20225;-78
2021/12/18 06:04:14;;;;;;;56.57;2.80;;;;;;;;;;5073482;28;20734;-77
2021/12/18 06:06:41;;;;;;;19.17;1.77;;;;;;;;;;5073257;28;20661;-77
2021/12/18 06:09:09;;;;;;;19.10;2.13;;;;;;;;;;5071237;28;20222;-77
2021/12/18 06:11:38;;;;;;;41.07;2.70;;;;;;;;;;5070082;28;20244;-78
2021/12/18 06:14:05;;;;;;;25.47;2.67;;;;;;;;;;5073859;28;20238;-78
2021/12/18 06:16:33;;;;;;;51.33;3.67;;;;;;;;;;5074873;28;20225;-78
2021/12/18 06:18:59;;;;;;;29.40;3.90;;;;;;;;;;5075912;28;20710;-79
2021/12/18 06:21:28;;;;;;;40.90;4.00;;;;;;;;;;5069989;28;20210;-77
2021/12/18 06:23:55;;;;;;;37.33;4.33;;;;;;;;;;5072093;28;20293;-77
2021/12/18 06:26:23;;;;;;;16.60;3.17;;;;;;;;;;5070118;28;20712;-77
2021/12/18 06:28:51;;;;;;;29.50;4.77;;;;;;;;;;5071024;28;20254;-77
2021/12/18 06:31:17;;;;;;;25.67;4.40;;;;;;;;;;5071335;28;20250;-77
2021/12/18 06:33:45;;;;;;;12.47;3.07;;;;;;;;;;5070437;28;20217;-77
2021/12/18 06:36:12;;;;;;;13.53;4.33;;;;;;;;;;5069172;28;20342;-77
2021/12/18 06:38:38;;;;;;;15.13;3.20;;;;;;;;;;5071909;28;20894;-77
2021/12/18 06:41:05;;;;;;;8.77;2.77;;;;;;;;;;5071438;28;20283;-76
2021/12/18 06:43:31;;;;;;;13.70;4.37;;;;;;;;;;5071698;28;20255;-77
2021/12/18 06:45:58;;;;;;;42.23;5.20;;;;;;;;;;5069805;28;20233;-77
2021/12/18 06:48:24;;;;;;;27.30;4.53;;;;;;;;;;5070230;28;20206;-77
2021/12/18 06:50:52;;;;;;;15.97;3.83;;;;;;;;;;5069049;28;20900;-77
2021/12/18 06:53:18;;;;;;;14.53;4.13;;;;;;;;;;5069151;28;20209;-76
2021/12/18 06:55:45;;;;;;;16.17;4.20;;;;;;;;;;5072141;28;20259;-77
2021/12/18 06:58:11;;;;;;;20.27;6.90;;;;;;;;;;5068910;28;20267;-76
2021/12/18 07:00:38;;;;;;;23.97;6.10;;;;;;;;;;5069153;28;20266;-77
2021/12/18 07:03:05;;;;;;;42.80;5.97;;;;;;;;;;5071810;28;20743;-77
2021/12/18 07:05:32;;;;;;;57.93;6.67;;;;;;;;;;5071057;28;20213;-79
2021/12/18 07:07:59;;;;;;;28.77;5.70;;;;;;;;;;5069923;28;20209;-77
2021/12/18 07:10:26;;;;;;;20.93;5.60;;;;;;;;;;5067382;28;20217;-77
2021/12/18 07:12:52;;;;;;;15.77;4.03;;;;;;;;;;5067465;28;20283;-77
2021/12/18 07:15:19;;;;;;;35.33;5.33;;;;;;;;;;5068606;28;20209;-77
2021/12/18 07:17:46;;;;;;;28.17;5.23;;;;;;;;;;5067888;28;20226;-76
2021/12/18 07:20:13;;;;;;;14.30;3.80;;;;;;;;;;5068813;28;20213;-77
2021/12/18 07:22:40;;;;;;;12.57;3.60;;;;;;;;;;5069768;28;20212;-77
2021/12/18 07:25:09;;;;;;;12.17;3.13;;;;;;;;;;5067341;28;20648;-77
2021/12/18 07:27:36;;;;;;;13.90;3.93;;;;;;;;;;5070404;28;20206;-77
2021/12/18 07:30:04;;;;;;;14.37;2.80;;;;;;;;;;5066998;28;20203;-77
2021/12/18 07:32:31;;;;;;;15.53;3.50;;;;;;;;;;5067564;28;20234;-77
2021/12/18 07:34:57;;;;;;;16.67;3.23;;;;;;;;;;5055419;28;20216;-78
2021/12/18 07:37:24;;;;;;;18.07;3.63;;;;;;;;;;5067325;28;20289;-78
2021/12/18 07:39:51;;;;;;;18.90;3.53;;;;;;;;;;5067851;28;20754;-77
2021/12/18 07:42:19;;;;;;;22.03;4.37;;;;;;;;;;5064994;28;20209;-76
2021/12/18 07:44:46;;;;;;;23.93;4.50;;;;;;;;;;5068495;28;20213;-77
2021/12/18 07:47:12;;;;;;;22.23;4.73;;;;;;;;;;5065564;28;20226;-77
2021/12/18 07:49:39;;;;;;;21.80;4.30;;;;;;;;;;5067895;28;20294;-77
2021/12/18 07:52:06;;;;;;;18.70;4.70;;;;;;;;;;5068214;28;20232;-77
2021/12/18 07:54:33;;;;;;;22.43;3.77;;;;;;;;;;5066019;28;20244;-76
2021/12/18 07:57:00;;;;;;;24.67;4.33;;;;;;;;;;5067380;28;20232;-77
2021/12/18 07:59:28;;;;;;;20.07;3.93;;;;;;;;;;5071736;28;20205;-79
2021/12/18 08:01:54;;;;;;;37.37;6.20;;;;;;;;;;5071347;28;20222;-78
2021/12/18 08:04:20;;;;;;;26.57;4.80;;;;;;;;;;5067330;28;20217;-77
2021/12/18 08:06:47;;;;;;;35.60;4.90;;;;;;;;;;5068411;28;20298;-77
2021/12/18 08:09:13;;;;;;;48.30;5.77;;;;;;;;;;5067556;28;20260;-77
2021/12/18 08:11:40;;;;;;;52.77;5.17;;;;;;;;;;5067318;28;20646;-77
2021/12/18 08:14:06;;;;;;;66.53;5.70;;;;;;;;;;5066787;28;20217;-77
2021/12/18 08:16:34;;;;;;;66.43;6.57;;;;;;;;;;5068802;28;20776;-77
2021/12/18 08:19:01;;;;;;;45.37;5.20;;;;;;;;;;5066458;28;20647;-77
2021/12/18 08:21:27;;;;;;;97.00;7.47;;;;;;;;;;5067283;28;20210;-77
2021/12/18 08:23:54;;;;;;;55.07;5.10;;;;;;;;;;5065660;28;20608;-78
2021/12/18 08:26:21;;;;;;;86.13;6.53;;;;;;;;;;5066571;28;20591;-77
2021/12/18 08:28:48;;;;;;;85.87;8.23;;;;;;;;;;5067464;28;20304;-77
2021/12/18 08:31:14;;;;;;;95.43;7.87;;;;;;;;;;5067155;28;20635;-77
2021/12/18 08:33:43;;;;;;;75.93;6.67;;;;;;;;;;5066438;28;20216;-78
2021/12/18 08:36:10;;;;;;;92.57;7.73;;;;;;;;;;5072424;28;20211;-79
2021/12/18 08:38:36;;;;;;;58.53;7.53;;;;;;;;;;5070993;28;20207;-77
2021/12/18 08:41:03;;;;;;;62.60;7.87;;;;;;;;;;5067887;28;20236;-77
2021/12/18 08:43:29;;;;;;;129.37;12.37;;;;;;;;;;5065276;28;20528;-77
2021/12/18 08:45:56;;;;;;;142.00;12.83;;;;;;;;;;5067211;28;20272;-77
2021/12/18 08:48:22;;;;;;;75.73;8.47;;;;;;;;;;5062175;28;20723;-77
2021/12/18 08:50:50;;;;;;;76.93;8.93;;;;;;;;;;5067975;28;20391;-77
2021/12/18 08:53:17;;;;;;;34.73;6.23;;;;;;;;;;5066410;28;20232;-77
2021/12/18 08:55:43;;;;;;;28.53;5.83;;;;;;;;;;5064204;28;20246;-76
2021/12/18 08:58:11;;;;;;;22.13;4.97;;;;;;;;;;5063640;28;20217;-76
2021/12/18 09:00:37;;;;;;;22.70;3.73;;;;;;;;;;5066408;28;20255;-76
2021/12/18 09:03:04;;;;;;;26.73;4.13;;;;;;;;;;5067176;28;20210;-76
2021/12/18 09:05:31;;;;;;;21.60;4.07;;;;;;;;;;5064001;28;20206;-76
2021/12/18 09:07:59;;;;;;;24.70;3.93;;;;;;;;;;5066380;28;20729;-76
2021/12/18 09:10:25;;;;;;;23.20;3.53;;;;;;;;;;5064640;28;20222;-76
2021/12/18 09:12:52;;;;;;;31.03;4.37;;;;;;;;;;5067850;28;20250;-76
2021/12/18 09:15:19;;;;;;;44.90;5.57;;;;;;;;;;5067376;28;20606;-76
2021/12/18 09:17:45;;;;;;;59.93;6.27;;;;;;;;;;5068891;28;20580;-76
2021/12/18 09:20:13;;;;;;;35.37;5.47;;;;;;;;;;5065988;28;20278;-76
2021/12/18 09:22:40;;;;;;;27.70;6.20;;;;;;;;;;5066899;28;20656;-76
2021/12/18 09:25:10;;;;;;;23.23;5.93;;;;;;;;;;5065705;28;20275;-76
2021/12/18 09:27:37;;;;;;;17.03;5.40;;;;;;;;;;5066810;28;21003;-76
2021/12/18 09:30:06;;;;;;;16.43;4.27;;;;;;;;;;5070632;28;20226;-76
2021/12/18 09:32:32;;;;;;;15.20;3.20;;;;;;;;;;5069512;28;20240;-76
2021/12/18 09:34:59;;;;;;;8.43;2.70;;;;;;;;;;5070686;28;20216;-76
2021/12/18 09:37:26;;;;;;;4.17;1.50;;;;;;;;;;5072732;28;20209;-78
2021/12/18 09:39:52;;;;;;;7.10;1.53;;;;;;;;;;5076462;28;20286;-76
2021/12/18 09:42:21;;;;;;;5.00;1.30;;;;;;;;;;5068160;28;20629;-77
2021/12/18 09:44:50;;;;;;;7.83;1.60;;;;;;;;;;5071456;28;20210;-77
2021/12/18 09:47:19;;;;;;;12.30;2.37;;;;;;;;;;5069601;28;20313;-77
2021/12/18 09:49:46;;;;;;;17.27;2.87;;;;;;;;;;5069574;28;20233;-77
2021/12/18 09:52:12;;;;;;;17.97;3.17;;;;;;;;;;5072766;28;20229;-76
2021/12/18 09:54:39;;;;;;;16.70;3.10;;;;;;;;;;5069803;28;20709;-77
2021/12/18 09:57:05;;;;;;;10.70;2.83;;;;;;;;;;5071462;28;20207;-77
2021/12/18 09:59:33;;;;;;;9.60;2.30;;;;;;;;;;5069911;28;20240;-77
2021/12/18 10:02:00;;;;;;;18.17;3.27;;;;;;;;;;5071322;28;20382;-77
2021/12/18 10:04:29;;;;;;;14.00;3.30;;;;;;;;;;5068987;28;20496;-77
2021/12/18 10:06:58;;;;;;;9.03;2.30;;;;;;;;;;5069157;28;20780;-77
2021/12/18 10:09:35;;;;;;;17.70;4.53;;;;;;;;;;5067309;28;20801;-76
2021/12/18 10:12:06;;;;;;;14.37;4.20;;;;;;;;;;5070064;28;20217;-76
2021/12/18 10:14:37;;;;;;;10.57;3.27;;;;;;;;;;5070068;28;20590;-77
2021/12/18 10:17:04;;;;;;;12.20;3.50;;;;;;;;;;5069394;28;20773;-77
2021/12/18 10:19:33;;;;;;;9.17;3.30;;;;;;;;;;5067587;28;20690;-76
2021/12/18 10:22:02;;;;;;;7.67;2.40;;;;;;;;;;5069224;28;20737;-77
2021/12/18 10:24:29;;;;;;;7.40;2.50;;;;;;;;;;5069472;28;20298;-77
2021/12/18 10:26:56;;;;;;;5.27;2.20;;;;;;;;;;5068531;28;20213;-77
2021/12/18 10:29:26;;;;;;;7.17;2.20;;;;;;;;;;5069262;28;20665;-76
2021/12/18 10:31:55;;;;;;;5.00;1.80;;;;;;;;;;5068843;28;20683;-76
2021/12/18 10:34:23;;;;;;;3.43;1.40;;;;;;;;;;5069585;28;20213;-77
2021/12/18 10:37:18;;;;;;;4.67;1.77;;;;;;;;;;5068075;28;20205;-77
2021/12/18 10:39:56;;;;;;;3.00;1.30;;;;;;;;;;5066749;28;20222;-77
2021/12/18 10:42:25;;;;;;;3.60;1.27;;;;;;;;;;5064766;28;20627;-77
2021/12/18 10:45:11;;;;;;;3.03;1.40;;;;;;;;;;5070427;28;20269;-77
2021/12/18 10:48:04;;;;;;;3.53;1.50;;;;;;;;;;5068028;28;20260;-77
2021/12/18 10:50:39;;;;;;;5.27;1.67;;;;;;;;;;5048779;28;20697;-77
2021/12/18 10:53:08;;;;;;;4.67;1.80;;;;;;;;;;5070059;28;20241;-77
2021/12/18 10:55:43;;;;;;;3.63;1.50;;;;;;;;;;5069065;28;20231;-77
2021/12/18 10:58:13;;;;;;;5.57;1.60;;;;;;;;;;5068750;28;20202;-77
2021/12/18 11:00:50;;;;;;;4.43;2.13;;;;;;;;;;5068124;28;20241;-77
2021/12/18 11:03:22;;;;;;;10.13;5.00;;;;;;;;;;5067266;28;20214;-77
2021/12/18 11:06:09;;;;;;;4.90;2.50;;;;;;;;;;5069770;28;20212;-77
2021/12/18 11:08:38;;;;;;;5.20;3.00;;;;;;;;;;5068182;28;20218;-77
2021/12/18 11:13:48;;;;;;;6.57;3.20;;;;;;;;;;5066660;28;20834;-77
2021/12/18 11:16:16;;;;;;;5.83;2.97;;;;;;;;;;5066444;28;20233;-77
2021/12/18 11:18:44;;;;;;;4.77;2.07;;;;;;;;;;5068575;28;20206;-77
2021/12/18 11:21:11;;;;;;;4.67;1.77;;;;;;;;;;5068440;28;20603;-77
2021/12/18 11:23:40;;;;;;;3.77;1.87;;;;;;;;;;5068828;28;20224;-77
2021/12/18 11:26:08;;;;;;;3.50;1.53;;;;;;;;;;5069731;28;20316;-77
2021/12/18 11:28:36;;;;;;;3.00;1.60;;;;;;;;;;5065463;28;20564;-77
2021/12/18 11:31:03;;;;;;;5.53;2.00;;;;;;;;;;5067831;28;20652;-77
2021/12/18 11:33:31;;;;;;;7.23;1.83;;;;;;;;;;5065755;28;20230;-77
2021/12/18 11:36:03;;;;;;;4.83;2.30;;;;;;;;;;5067820;28;20264;-76
2021/12/18 11:38:31;;;;;;;4.20;1.83;;;;;;;;;;5067925;28;20292;-77
2021/12/18 11:40:58;;;;;;;4.10;1.77;;;;;;;;;;5066323;28;20944;-77
2021/12/18 11:43:34;;;;;;;5.50;2.03;;;;;;;;;;5068506;28;20276;-77
2021/12/18 11:46:01;;;;;;;4.60;1.70;;;;;;;;;;5068151;28;20271;-77
2021/12/18 11:48:28;;;;;;;5.63;2.50;;;;;;;;;;5067282;28;20237;-76
2021/12/18 11:50:54;;;;;;;4.77;1.90;;;;;;;;;;5067844;28;20255;-77
2021/12/18 11:53:36;;;;;;;5.03;2.10;;;;;;;;;;5067834;28;20231;-77
2021/12/18 11:56:03;;;;;;;6.23;2.60;;;;;;;;;;5069929;28;20364;-78
2021/12/18 11:58:34;;;;;;;7.63;2.33;;;;;;;;;;5066462;28;20607;-77
2021/12/18 12:01:03;;;;;;;5.40;2.00;;;;;;;;;;5068754;28;21205;-76
2021/12/18 12:03:36;;;;;;;5.87;1.80;;;;;;;;;;5066554;28;20202;-76
2021/12/18 12:06:05;;;;;;;5.03;1.97;;;;;;;;;;5065764;28;20310;-76
2021/12/18 12:08:38;;;;;;;6.83;2.03;;;;;;;;;;5068189;28;20616;-77
2021/12/18 12:11:15;;;;;;;7.63;2.03;;;;;;;;;;5066732;28;20233;-76
2021/12/18 12:14:08;;;;;;;6.57;2.10;;;;;;;;;;5067664;28;20316;-77
2021/12/18 12:17:25;;;;;;;6.17;1.90;;;;;;;;;;5067836;28;20245;-77
2021/12/18 12:20:05;;;;;;;4.53;1.60;;;;;;;;;;5044828;28;20257;-76
2021/12/18 12:22:53;;;;;;;4.53;1.67;;;;;;;;;;5067629;28;20237;-76
2021/12/18 12:25:34;;;;;;;6.53;2.10;;;;;;;;;;5066858;28;20299;-76
2021/12/18 12:28:03;;;;;;;6.17;1.90;;;;;;;;;;5067687;28;20378;-76
2021/12/18 12:30:34;;;;;;;8.47;3.83;;;;;;;;;;5065685;28;20214;-76
2021/12/18 12:33:03;;;;;;;7.70;2.80;;;;;;;;;;5067106;28;20225;-76
2021/12/18 12:35:29;;;;;;;5.20;2.93;;;;;;;;;;5067431;28;20972;-76
2021/12/18 12:37:56;;;;;;;6.67;3.20;;;;;;;;;;5065069;28;20213;-76
2021/12/18 12:40:35;;;;;;;9.47;2.80;;;;;;;;;;5069188;28;20230;-76
2021/12/18 12:43:14;;;;;;;5.87;2.70;;;;;;;;;;5068162;28;20539;-76
2021/12/18 12:45:42;;;;;;;6.07;2.77;;;;;;;;;;5067537;28;20247;-76
2021/12/18 12:48:09;;;;;;;6.83;3.10;;;;;;;;;;5067146;28;20278;-76
2021/12/18 12:50:36;;;;;;;8.73;2.97;;;;;;;;;;5067053;28;20679;-76
2021/12/18 12:53:06;;;;;;;9.70;3.37;;;;;;;;;;5067587;28;20232;-76
2021/12/18 12:55:40;;;;;;;8.77;2.87;;;;;;;;;;5066136;28;20855;-76
2021/12/18 12:58:16;;;;;;;10.90;3.63;;;;;;;;;;5064551;28;20611;-76
2021/12/18 13:00:52;;;;;;;9.27;3.73;;;;;;;;;;5066096;28;20701;-76
2021/12/18 13:03:28;;;;;;;12.20;4.60;;;;;;;;;;5064878;28;20215;-76
2021/12/18 13:06:01;;;;;;;10.40;3.63;;;;;;;;;;5070185;28;20485;-76
2021/12/18 13:08:29;;;;;;;12.57;4.23;;;;;;;;;;5071403;28;20258;-77
2021/12/18 13:10:59;;;;;;;7.40;3.90;;;;;;;;;;5070477;28;20233;-76
2021/12/18 13:13:28;;;;;;;9.87;4.27;;;;;;;;;;5071126;28;20222;-77
2021/12/18 13:15:58;;;;;;;8.40;3.97;;;;;;;;;;5070821;28;20232;-77
2021/12/18 13:18:26;;;;;;;10.63;4.93;;;;;;;;;;5071231;28;20224;-76
2021/12/18 13:20:56;;;;;;;12.63;4.50;;;;;;;;;;5071365;28;20210;-76
2021/12/18 13:23:36;;;;;;;11.40;4.37;;;;;;;;;;5070767;28;20206;-76
2021/12/18 13:26:06;;;;;;;12.00;4.20;;;;;;;;;;5071740;28;20803;-77
2021/12/18 13:28:33;;;;;;;10.10;4.67;;;;;;;;;;5070207;28;20707;-78
2021/12/18 13:31:00;;;;;;;11.80;5.07;;;;;;;;;;5073037;28;20247;-77
2021/12/18 13:33:28;;;;;;;14.23;5.67;;;;;;;;;;5070460;28;20231;-76
2021/12/18 13:35:57;;;;;;;12.30;5.20;;;;;;;;;;5071192;28;21199;-76
2021/12/18 13:38:25;;;;;;;13.03;5.20;;;;;;;;;;5069941;28;20384;-76
2021/12/18 13:40:53;;;;;;;15.33;5.97;;;;;;;;;;5068925;28;20232;-76
2021/12/18 13:43:23;;;;;;;16.90;5.70;;;;;;;;;;5071692;28;20237;-76
2021/12/18 13:45:52;;;;;;;12.67;5.30;;;;;;;;;;5071517;28;20277;-78
2021/12/18 13:48:20;;;;;;;15.13;5.77;;;;;;;;;;5069931;28;20210;-76
2021/12/18 13:50:53;;;;;;;13.40;6.03;;;;;;;;;;5070423;28;20205;-76
2021/12/18 13:53:20;;;;;;;15.23;6.80;;;;;;;;;;5068703;28;20279;-76
2021/12/18 13:55:55;;;;;;;17.57;6.57;;;;;;;;;;5069578;28;20235;-76
2021/12/18 13:58:25;;;;;;;18.47;6.73;;;;;;;;;;5070399;28;20714;-77
2021/12/18 14:00:56;;;;;;;17.63;7.10;;;;;;;;;;5069184;28;20585;-76
2021/12/18 14:03:26;;;;;;;20.07;7.50;;;;;;;;;;5071271;28;20283;-76
2021/12/18 14:05:53;;;;;;;26.20;8.23;;;;;;;;;;5068310;28;20699;-76
2021/12/18 14:08:21;;;;;;;23.10;8.20;;;;;;;;;;5067808;28;20571;-76
2021/12/18 14:10:48;;;;;;;20.83;7.30;;;;;;;;;;5070078;28;20229;-76
2021/12/18 14:13:16;;;;;;;29.83;8.57;;;;;;;;;;5068323;28;20223;-76
2021/12/18 14:15:44;;;;;;;23.53;8.37;;;;;;;;;;5070935;28;20236;-77
2021/12/18 14:18:29;;;;;;;27.33;8.87;;;;;;;;;;5069558;28;20202;-76
2021/12/18 14:20:56;;;;;;;20.97;8.47;;;;;;;;;;5068372;28;20201;-76
2021/12/18 14:23:29;;;;;;;21.50;7.73;;;;;;;;;;5069395;28;20260;-77
2021/12/18 14:26:12;;;;;;;17.17;7.20;;;;;;;;;;5067152;28;20235;-77
2021/12/18 14:28:38;;;;;;;15.37;6.77;;;;;;;;;;5068791;28;20210;-77
2021/12/18 14:31:27;;;;;;;15.30;6.40;;;;;;;;;;5069461;28;20703;-77
2021/12/18 14:33:57;;;;;;;18.10;7.67;;;;;;;;;;5069922;28;20233;-77
2021/12/18 14:36:58;;;;;;;22.77;7.63;;;;;;;;;;5069235;28;20285;-77
2021/12/18 14:39:28;;;;;;;16.90;7.23;;;;;;;;;;5008170;28;20215;-77
2021/12/18 14:42:00;;;;;;;14.63;7.03;;;;;;;;;;5006694;28;21320;-77
2021/12/18 14:44:28;;;;;;;17.20;7.53;;;;;;;;;;5037138;28;20223;-77
2021/12/18 14:47:23;;;;;;;19.03;7.70;;;;;;;;;;5070526;28;20239;-77
2021/12/18 14:50:19;;;;;;;21.57;7.40;;;;;;;;;;5068402;28;20234;-77
2021/12/18 14:52:55;;;;;;;19.27;7.57;;;;;;;;;;5070776;28;20245;-77
2021/12/18 14:55:24;;;;;;;18.40;7.57;;;;;;;;;;5068124;28;20602;-77
2021/12/18 14:57:57;;;;;;;23.80;7.70;;;;;;;;;;5070567;28;20215;-77
2021/12/18 15:00:26;;;;;;;23.03;8.23;;;;;;;;;;5069550;28;20212;-76
2021/12/18 15:03:06;;;;;;;21.73;7.80;;;;;;;;;;5064830;28;20296;-76
2021/12/18 15:05:50;;;;;;;18.13;8.07;;;;;;;;;;5070588;28;20218;-77
2021/12/18 15:08:18;;;;;;;21.57;8.17;;;;;;;;;;5065581;28;20274;-76
2021/12/18 15:10:50;;;;;;;21.87;8.83;;;;;;;;;;5067984;28;20230;-76
2021/12/18 15:13:21;;;;;;;23.80;9.03;;;;;;;;;;5070314;28;20236;-77
2021/12/18 15:15:48;;;;;;;22.00;8.87;;;;;;;;;;5069287;28;20321;-77
2021/12/18 15:18:15;;;;;;;21.67;8.07;;;;;;;;;;5067477;28;20215;-77
2021/12/18 15:20:41;;;;;;;25.83;9.83;;;;;;;;;;5069450;28;20433;-77